sensor_id;sensor_type;location;lat;lon;timestamp;P1;P2;P0
77699;PMS5003;66867;42.658;23.320;2023-07-31T00:00:00;10;10;
77699;PMS5003;66867;42.658;23.320;2023-07-31T00:01:00;9;8;
77699;PMS5003;66867;42.658;23.320;2023-07-31T00:02:00;8;8;
77699;PMS5003;66867;42.658;23.320;2023-07-31T00:03:00;11;10;
77699;PMS5003;66867;42.658;23.320;2023-07-31T00:04:00;9;9;
77699;PMS5003;66867;42.658;23.320;2023-07-31T00:05:01;11;11;
77699;PMS5003;66867;42.658;23.320;2023-07-31T00:06:00;8;8;
77699;PMS5003;66867;42.658;23.320;2023-07-31T00:07:00;11;9;
77699;PMS5003;66867;42.658;23.320;2023-07-31T00:08:00;9;9;
77699;PMS5003;66867;42.658;23.320;2023-07-31T00:09:00;8;8;
77699;PMS5003;66867;42.658;23.320;2023-07-31T00:10:00;9;9;
77699;PMS5003;66867;42.658;23.320;2023-07-31T00:11:00;9;9;
77699;PMS5003;66867;42.658;23.320;2023-07-31T00:12:00;9;9;
77699;PMS5003;66867;42.658;23.320;2023-07-31T00:13:00;11;11;
77699;PMS5003;66867;42.658;23.320;2023-07-31T00:14:00;10;9;
77699;PMS5003;66867;42.658;23.320;2023-07-31T00:15:00;12;11;
77699;PMS5003;66867;42.658;23.320;2023-07-31T00:16:00;9;9;
77699;PMS5003;66867;42.658;23.320;2023-07-31T00:17:00;10;9;
77699;PMS5003;66867;42.658;23.320;2023-07-31T00:18:00;10;10;
77699;PMS5003;66867;42.658;23.320;2023-07-31T00:19:00;10;9;
77699;PMS5003;66867;42.658;23.320;2023-07-31T00:20:00;8;8;
77699;PMS5003;66867;42.658;23.320;2023-07-31T00:21:00;7;7;
77699;PMS5003;66867;42.658;23.320;2023-07-31T00:22:00;11;11;
77699;PMS5003;66867;42.658;23.320;2023-07-31T00:23:00;11;10;
77699;PMS5003;66867;42.658;23.320;2023-07-31T00:24:00;12;12;
77699;PMS5003;66867;42.658;23.320;2023-07-31T00:25:00;11;10;
77699;PMS5003;66867;42.658;23.320;2023-07-31T00:26:00;12;12;
77699;PMS5003;66867;42.658;23.320;2023-07-31T00:27:00;10;10;
77699;PMS5003;66867;42.658;23.320;2023-07-31T00:28:00;10;10;
77699;PMS5003;66867;42.658;23.320;2023-07-31T00:29:00;11;10;
77699;PMS5003;66867;42.658;23.320;2023-07-31T00:30:00;10;10;
77699;PMS5003;66867;42.658;23.320;2023-07-31T00:31:00;12;12;
77699;PMS5003;66867;42.658;23.320;2023-07-31T00:32:00;12;12;
77699;PMS5003;66867;42.658;23.320;2023-07-31T00:33:00;10;10;
77699;PMS5003;66867;42.658;23.320;2023-07-31T00:34:00;13;13;
77699;PMS5003;66867;42.658;23.320;2023-07-31T00:35:00;10;10;
77699;PMS5003;66867;42.658;23.320;2023-07-31T00:36:00;11;11;
77699;PMS5003;66867;42.658;23.320;2023-07-31T00:37:00;11;11;
77699;PMS5003;66867;42.658;23.320;2023-07-31T00:38:00;10;10;
77699;PMS5003;66867;42.658;23.320;2023-07-31T00:39:00;9;9;
77699;PMS5003;66867;42.658;23.320;2023-07-31T00:40:00;10;10;
77699;PMS5003;66867;42.658;23.320;2023-07-31T00:41:00;12;12;
77699;PMS5003;66867;42.658;23.320;2023-07-31T00:42:00;13;12;
77699;PMS5003;66867;42.658;23.320;2023-07-31T00:43:00;12;12;
77699;PMS5003;66867;42.658;23.320;2023-07-31T00:44:00;10;10;
77699;PMS5003;66867;42.658;23.320;2023-07-31T00:45:00;10;10;
77699;PMS5003;66867;42.658;23.320;2023-07-31T00:46:00;11;11;
77699;PMS5003;66867;42.658;23.320;2023-07-31T00:47:00;12;12;
77699;PMS5003;66867;42.658;23.320;2023-07-31T00:48:01;12;11;
77699;PMS5003;66867;42.658;23.320;2023-07-31T00:49:00;12;12;
77699;PMS5003;66867;42.658;23.320;2023-07-31T00:50:00;11;10;
77699;PMS5003;66867;42.658;23.320;2023-07-31T00:51:00;14;13;
77699;PMS5003;66867;42.658;23.320;2023-07-31T00:52:00;13;13;
77699;PMS5003;66867;42.658;23.320;2023-07-31T00:53:00;17;16;
77699;PMS5003;66867;42.658;23.320;2023-07-31T00:54:00;15;15;
77699;PMS5003;66867;42.658;23.320;2023-07-31T00:55:00;15;15;
77699;PMS5003;66867;42.658;23.320;2023-07-31T00:56:00;13;13;
77699;PMS5003;66867;42.658;23.320;2023-07-31T00:57:00;15;15;
77699;PMS5003;66867;42.658;23.320;2023-07-31T00:58:00;13;13;
77699;PMS5003;66867;42.658;23.320;2023-07-31T00:59:00;13;13;
77699;PMS5003;66867;42.658;23.320;2023-07-31T01:00:00;17;17;
77699;PMS5003;66867;42.658;23.320;2023-07-31T01:01:00;17;15;
77699;PMS5003;66867;42.658;23.320;2023-07-31T01:02:00;17;16;
77699;PMS5003;66867;42.658;23.320;2023-07-31T01:03:00;14;14;
77699;PMS5003;66867;42.658;23.320;2023-07-31T01:04:00;15;15;
77699;PMS5003;66867;42.658;23.320;2023-07-31T01:05:01;11;11;
77699;PMS5003;66867;42.658;23.320;2023-07-31T01:07:11;16;16;
77699;PMS5003;66867;42.658;23.320;2023-07-31T01:09:04;18;18;
77699;PMS5003;66867;42.658;23.320;2023-07-31T01:10:09;19;18;
77699;PMS5003;66867;42.658;23.320;2023-07-31T01:11:07;17;17;
77699;PMS5003;66867;42.658;23.320;2023-07-31T01:12:02;19;18;
77699;PMS5003;66867;42.658;23.320;2023-07-31T01:13:01;21;19;
77699;PMS5003;66867;42.658;23.320;2023-07-31T01:14:00;19;19;
77699;PMS5003;66867;42.658;23.320;2023-07-31T01:15:09;22;21;
77699;PMS5003;66867;42.658;23.320;2023-07-31T01:16:00;18;18;
77699;PMS5003;66867;42.658;23.320;2023-07-31T01:17:00;21;20;
77699;PMS5003;66867;42.658;23.320;2023-07-31T01:18:00;22;22;
77699;PMS5003;66867;42.658;23.320;2023-07-31T01:19:00;20;19;
77699;PMS5003;66867;42.658;23.320;2023-07-31T01:20:02;22;22;
77699;PMS5003;66867;42.658;23.320;2023-07-31T01:21:12;24;23;
77699;PMS5003;66867;42.658;23.320;2023-07-31T01:23:16;22;22;
77699;PMS5003;66867;42.658;23.320;2023-07-31T01:26:12;26;25;
77699;PMS5003;66867;42.658;23.320;2023-07-31T01:27:06;23;23;
77699;PMS5003;66867;42.658;23.320;2023-07-31T01:28:04;24;24;
77699;PMS5003;66867;42.658;23.320;2023-07-31T01:29:05;26;26;
77699;PMS5003;66867;42.658;23.320;2023-07-31T01:30:05;29;28;
77699;PMS5003;66867;42.658;23.320;2023-07-31T01:31:02;26;25;
77699;PMS5003;66867;42.658;23.320;2023-07-31T01:32:02;22;22;
77699;PMS5003;66867;42.658;23.320;2023-07-31T01:33:00;30;30;
77699;PMS5003;66867;42.658;23.320;2023-07-31T01:34:01;27;26;
77699;PMS5003;66867;42.658;23.320;2023-07-31T01:35:00;29;28;
77699;PMS5003;66867;42.658;23.320;2023-07-31T01:36:00;26;26;
77699;PMS5003;66867;42.658;23.320;2023-07-31T01:37:00;29;28;
77699;PMS5003;66867;42.658;23.320;2023-07-31T01:38:00;26;26;
77699;PMS5003;66867;42.658;23.320;2023-07-31T01:39:01;27;27;
77699;PMS5003;66867;42.658;23.320;2023-07-31T01:40:00;35;32;
77699;PMS5003;66867;42.658;23.320;2023-07-31T01:41:00;35;32;
77699;PMS5003;66867;42.658;23.320;2023-07-31T01:42:00;34;31;
77699;PMS5003;66867;42.658;23.320;2023-07-31T01:43:00;39;34;
77699;PMS5003;66867;42.658;23.320;2023-07-31T01:44:00;36;33;
77699;PMS5003;66867;42.658;23.320;2023-07-31T01:45:00;31;30;
77699;PMS5003;66867;42.658;23.320;2023-07-31T01:46:00;34;31;
77699;PMS5003;66867;42.658;23.320;2023-07-31T01:47:00;35;32;
77699;PMS5003;66867;42.658;23.320;2023-07-31T01:48:00;33;32;
77699;PMS5003;66867;42.658;23.320;2023-07-31T01:49:00;35;33;
77699;PMS5003;66867;42.658;23.320;2023-07-31T01:50:00;33;30;
77699;PMS5003;66867;42.658;23.320;2023-07-31T01:51:00;37;34;
77699;PMS5003;66867;42.658;23.320;2023-07-31T01:52:00;35;32;
77699;PMS5003;66867;42.658;23.320;2023-07-31T01:53:00;37;33;
77699;PMS5003;66867;42.658;23.320;2023-07-31T01:54:00;33;31;
77699;PMS5003;66867;42.658;23.320;2023-07-31T01:55:00;32;31;
77699;PMS5003;66867;42.658;23.320;2023-07-31T01:56:00;33;31;
77699;PMS5003;66867;42.658;23.320;2023-07-31T01:57:00;38;34;
77699;PMS5003;66867;42.658;23.320;2023-07-31T01:58:00;39;35;
77699;PMS5003;66867;42.658;23.320;2023-07-31T01:59:00;38;34;
77699;PMS5003;66867;42.658;23.320;2023-07-31T02:00:00;36;33;
77699;PMS5003;66867;42.658;23.320;2023-07-31T02:01:00;36;33;
77699;PMS5003;66867;42.658;23.320;2023-07-31T02:02:00;34;31;
77699;PMS5003;66867;42.658;23.320;2023-07-31T02:03:00;33;31;
77699;PMS5003;66867;42.658;23.320;2023-07-31T02:04:00;34;32;
77699;PMS5003;66867;42.658;23.320;2023-07-31T02:05:00;39;34;
77699;PMS5003;66867;42.658;23.320;2023-07-31T02:06:00;35;32;
77699;PMS5003;66867;42.658;23.320;2023-07-31T02:07:00;41;36;
77699;PMS5003;66867;42.658;23.320;2023-07-31T02:08:00;40;35;
77699;PMS5003;66867;42.658;23.320;2023-07-31T02:09:00;45;38;
77699;PMS5003;66867;42.658;23.320;2023-07-31T02:10:00;39;35;
77699;PMS5003;66867;42.658;23.320;2023-07-31T02:11:00;39;35;
77699;PMS5003;66867;42.658;23.320;2023-07-31T02:12:00;36;33;
77699;PMS5003;66867;42.658;23.320;2023-07-31T02:13:00;42;36;
77699;PMS5003;66867;42.658;23.320;2023-07-31T02:14:00;36;33;
77699;PMS5003;66867;42.658;23.320;2023-07-31T02:15:00;35;33;
77699;PMS5003;66867;42.658;23.320;2023-07-31T02:16:00;35;32;
77699;PMS5003;66867;42.658;23.320;2023-07-31T02:17:00;39;34;
77699;PMS5003;66867;42.658;23.320;2023-07-31T02:18:00;40;34;
77699;PMS5003;66867;42.658;23.320;2023-07-31T02:19:00;44;37;
77699;PMS5003;66867;42.658;23.320;2023-07-31T02:20:00;40;35;
77699;PMS5003;66867;42.658;23.320;2023-07-31T02:21:00;35;32;
77699;PMS5003;66867;42.658;23.320;2023-07-31T02:22:00;39;35;
77699;PMS5003;66867;42.658;23.320;2023-07-31T02:23:00;37;33;
77699;PMS5003;66867;42.658;23.320;2023-07-31T02:24:00;34;32;
77699;PMS5003;66867;42.658;23.320;2023-07-31T02:25:00;43;38;
77699;PMS5003;66867;42.658;23.320;2023-07-31T02:26:00;40;36;
77699;PMS5003;66867;42.658;23.320;2023-07-31T02:27:00;39;34;
77699;PMS5003;66867;42.658;23.320;2023-07-31T02:28:00;33;31;
77699;PMS5003;66867;42.658;23.320;2023-07-31T02:29:00;40;33;
77699;PMS5003;66867;42.658;23.320;2023-07-31T02:30:00;42;34;
77699;PMS5003;66867;42.658;23.320;2023-07-31T02:31:00;37;34;
77699;PMS5003;66867;42.658;23.320;2023-07-31T02:32:00;35;33;
77699;PMS5003;66867;42.658;23.320;2023-07-31T02:33:00;41;35;
77699;PMS5003;66867;42.658;23.320;2023-07-31T02:34:00;43;36;
77699;PMS5003;66867;42.658;23.320;2023-07-31T02:35:00;37;34;
77699;PMS5003;66867;42.658;23.320;2023-07-31T02:36:00;37;34;
77699;PMS5003;66867;42.658;23.320;2023-07-31T02:37:00;36;32;
77699;PMS5003;66867;42.658;23.320;2023-07-31T02:38:00;35;32;
77699;PMS5003;66867;42.658;23.320;2023-07-31T02:39:00;39;35;
77699;PMS5003;66867;42.658;23.320;2023-07-31T02:40:00;36;33;
77699;PMS5003;66867;42.658;23.320;2023-07-31T02:41:00;40;35;
77699;PMS5003;66867;42.658;23.320;2023-07-31T02:42:00;36;33;
77699;PMS5003;66867;42.658;23.320;2023-07-31T02:43:00;39;33;
77699;PMS5003;66867;42.658;23.320;2023-07-31T02:44:00;40;35;
77699;PMS5003;66867;42.658;23.320;2023-07-31T02:45:00;36;33;
77699;PMS5003;66867;42.658;23.320;2023-07-31T02:46:00;38;34;
77699;PMS5003;66867;42.658;23.320;2023-07-31T02:47:00;35;32;
77699;PMS5003;66867;42.658;23.320;2023-07-31T02:48:00;37;33;
77699;PMS5003;66867;42.658;23.320;2023-07-31T02:49:00;35;32;
77699;PMS5003;66867;42.658;23.320;2023-07-31T02:50:01;36;33;
77699;PMS5003;66867;42.658;23.320;2023-07-31T02:51:00;42;36;
77699;PMS5003;66867;42.658;23.320;2023-07-31T02:52:00;33;32;
77699;PMS5003;66867;42.658;23.320;2023-07-31T02:53:00;45;37;
77699;PMS5003;66867;42.658;23.320;2023-07-31T02:54:00;37;33;
77699;PMS5003;66867;42.658;23.320;2023-07-31T02:55:00;38;34;
77699;PMS5003;66867;42.658;23.320;2023-07-31T02:56:00;37;33;
77699;PMS5003;66867;42.658;23.320;2023-07-31T02:57:00;40;36;
77699;PMS5003;66867;42.658;23.320;2023-07-31T02:58:00;36;33;
77699;PMS5003;66867;42.658;23.320;2023-07-31T02:59:00;36;33;
77699;PMS5003;66867;42.658;23.320;2023-07-31T03:00:00;38;35;
77699;PMS5003;66867;42.658;23.320;2023-07-31T03:01:00;36;33;
77699;PMS5003;66867;42.658;23.320;2023-07-31T03:02:00;43;36;
77699;PMS5003;66867;42.658;23.320;2023-07-31T03:03:00;38;33;
77699;PMS5003;66867;42.658;23.320;2023-07-31T03:04:00;42;36;
77699;PMS5003;66867;42.658;23.320;2023-07-31T03:05:00;40;35;
77699;PMS5003;66867;42.658;23.320;2023-07-31T03:06:00;42;35;
77699;PMS5003;66867;42.658;23.320;2023-07-31T03:07:00;39;35;
77699;PMS5003;66867;42.658;23.320;2023-07-31T03:08:01;37;34;
77699;PMS5003;66867;42.658;23.320;2023-07-31T03:09:00;40;35;
77699;PMS5003;66867;42.658;23.320;2023-07-31T03:10:00;35;32;
77699;PMS5003;66867;42.658;23.320;2023-07-31T03:11:00;40;34;
77699;PMS5003;66867;42.658;23.320;2023-07-31T03:12:00;42;36;
77699;PMS5003;66867;42.658;23.320;2023-07-31T03:13:00;42;36;
77699;PMS5003;66867;42.658;23.320;2023-07-31T03:14:00;37;34;
77699;PMS5003;66867;42.658;23.320;2023-07-31T03:15:00;38;34;
77699;PMS5003;66867;42.658;23.320;2023-07-31T03:16:00;41;35;
77699;PMS5003;66867;42.658;23.320;2023-07-31T03:17:00;35;31;
77699;PMS5003;66867;42.658;23.320;2023-07-31T03:18:00;39;35;
77699;PMS5003;66867;42.658;23.320;2023-07-31T03:19:00;38;34;
77699;PMS5003;66867;42.658;23.320;2023-07-31T03:20:00;38;34;
77699;PMS5003;66867;42.658;23.320;2023-07-31T03:21:00;41;36;
77699;PMS5003;66867;42.658;23.320;2023-07-31T03:22:00;35;32;
77699;PMS5003;66867;42.658;23.320;2023-07-31T03:23:00;41;36;
77699;PMS5003;66867;42.658;23.320;2023-07-31T03:24:00;45;38;
77699;PMS5003;66867;42.658;23.320;2023-07-31T03:25:01;34;32;
77699;PMS5003;66867;42.658;23.320;2023-07-31T03:26:02;34;32;
77699;PMS5003;66867;42.658;23.320;2023-07-31T03:27:00;40;36;
77699;PMS5003;66867;42.658;23.320;2023-07-31T03:28:00;44;38;
77699;PMS5003;66867;42.658;23.320;2023-07-31T03:29:00;38;33;
77699;PMS5003;66867;42.658;23.320;2023-07-31T03:30:02;39;35;
77699;PMS5003;66867;42.658;23.320;2023-07-31T03:31:00;35;32;
77699;PMS5003;66867;42.658;23.320;2023-07-31T03:32:00;36;33;
77699;PMS5003;66867;42.658;23.320;2023-07-31T03:33:00;38;33;
77699;PMS5003;66867;42.658;23.320;2023-07-31T03:34:00;37;33;
77699;PMS5003;66867;42.658;23.320;2023-07-31T03:35:00;39;33;
77699;PMS5003;66867;42.658;23.320;2023-07-31T03:36:00;42;36;
77699;PMS5003;66867;42.658;23.320;2023-07-31T03:37:00;39;34;
77699;PMS5003;66867;42.658;23.320;2023-07-31T03:38:00;37;32;
77699;PMS5003;66867;42.658;23.320;2023-07-31T03:39:00;40;35;
77699;PMS5003;66867;42.658;23.320;2023-07-31T03:40:00;35;33;
77699;PMS5003;66867;42.658;23.320;2023-07-31T03:41:00;39;34;
77699;PMS5003;66867;42.658;23.320;2023-07-31T03:42:00;38;33;
77699;PMS5003;66867;42.658;23.320;2023-07-31T03:43:00;37;34;
77699;PMS5003;66867;42.658;23.320;2023-07-31T03:44:00;38;34;
77699;PMS5003;66867;42.658;23.320;2023-07-31T03:45:00;42;36;
77699;PMS5003;66867;42.658;23.320;2023-07-31T03:46:00;41;35;
77699;PMS5003;66867;42.658;23.320;2023-07-31T03:47:00;40;36;
77699;PMS5003;66867;42.658;23.320;2023-07-31T03:48:00;36;33;
77699;PMS5003;66867;42.658;23.320;2023-07-31T03:49:00;35;32;
77699;PMS5003;66867;42.658;23.320;2023-07-31T03:50:00;41;35;
77699;PMS5003;66867;42.658;23.320;2023-07-31T03:51:00;36;33;
77699;PMS5003;66867;42.658;23.320;2023-07-31T03:52:00;40;35;
77699;PMS5003;66867;42.658;23.320;2023-07-31T03:53:00;35;33;
77699;PMS5003;66867;42.658;23.320;2023-07-31T03:54:00;38;34;
77699;PMS5003;66867;42.658;23.320;2023-07-31T03:55:00;33;30;
77699;PMS5003;66867;42.658;23.320;2023-07-31T03:56:00;42;37;
77699;PMS5003;66867;42.658;23.320;2023-07-31T03:57:00;37;32;
77699;PMS5003;66867;42.658;23.320;2023-07-31T03:58:00;39;35;
77699;PMS5003;66867;42.658;23.320;2023-07-31T03:59:00;45;37;
77699;PMS5003;66867;42.658;23.320;2023-07-31T04:00:00;39;34;
77699;PMS5003;66867;42.658;23.320;2023-07-31T04:01:00;37;34;
77699;PMS5003;66867;42.658;23.320;2023-07-31T04:02:00;39;35;
77699;PMS5003;66867;42.658;23.320;2023-07-31T04:03:00;33;30;
77699;PMS5003;66867;42.658;23.320;2023-07-31T04:04:00;41;35;
77699;PMS5003;66867;42.658;23.320;2023-07-31T04:05:00;35;32;
77699;PMS5003;66867;42.658;23.320;2023-07-31T04:06:00;39;35;
77699;PMS5003;66867;42.658;23.320;2023-07-31T04:07:00;37;33;
77699;PMS5003;66867;42.658;23.320;2023-07-31T04:08:00;47;40;
77699;PMS5003;66867;42.658;23.320;2023-07-31T04:09:01;39;35;
77699;PMS5003;66867;42.658;23.320;2023-07-31T04:10:00;38;35;
77699;PMS5003;66867;42.658;23.320;2023-07-31T04:11:00;38;34;
77699;PMS5003;66867;42.658;23.320;2023-07-31T04:12:00;35;32;
77699;PMS5003;66867;42.658;23.320;2023-07-31T04:13:00;38;34;
77699;PMS5003;66867;42.658;23.320;2023-07-31T04:14:00;40;35;
77699;PMS5003;66867;42.658;23.320;2023-07-31T04:15:00;41;36;
77699;PMS5003;66867;42.658;23.320;2023-07-31T04:16:00;35;32;
77699;PMS5003;66867;42.658;23.320;2023-07-31T04:17:00;39;34;
77699;PMS5003;66867;42.658;23.320;2023-07-31T04:18:00;36;33;
77699;PMS5003;66867;42.658;23.320;2023-07-31T04:19:00;37;33;
77699;PMS5003;66867;42.658;23.320;2023-07-31T04:20:00;38;34;
77699;PMS5003;66867;42.658;23.320;2023-07-31T04:21:00;36;33;
77699;PMS5003;66867;42.658;23.320;2023-07-31T04:22:00;35;32;
77699;PMS5003;66867;42.658;23.320;2023-07-31T04:23:00;37;33;
77699;PMS5003;66867;42.658;23.320;2023-07-31T04:24:00;37;34;
77699;PMS5003;66867;42.658;23.320;2023-07-31T04:25:00;40;34;
77699;PMS5003;66867;42.658;23.320;2023-07-31T04:26:00;36;33;
77699;PMS5003;66867;42.658;23.320;2023-07-31T04:27:00;39;34;
77699;PMS5003;66867;42.658;23.320;2023-07-31T04:28:00;38;34;
77699;PMS5003;66867;42.658;23.320;2023-07-31T04:29:00;41;35;
77699;PMS5003;66867;42.658;23.320;2023-07-31T04:30:00;36;32;
77699;PMS5003;66867;42.658;23.320;2023-07-31T04:31:00;43;36;
77699;PMS5003;66867;42.658;23.320;2023-07-31T04:32:00;37;34;
77699;PMS5003;66867;42.658;23.320;2023-07-31T04:33:00;37;34;
77699;PMS5003;66867;42.658;23.320;2023-07-31T04:34:00;34;31;
77699;PMS5003;66867;42.658;23.320;2023-07-31T04:35:00;44;35;
77699;PMS5003;66867;42.658;23.320;2023-07-31T04:36:00;34;31;
77699;PMS5003;66867;42.658;23.320;2023-07-31T04:37:00;36;33;
77699;PMS5003;66867;42.658;23.320;2023-07-31T04:38:00;38;33;
77699;PMS5003;66867;42.658;23.320;2023-07-31T04:39:00;36;33;
77699;PMS5003;66867;42.658;23.320;2023-07-31T04:40:00;38;34;
77699;PMS5003;66867;42.658;23.320;2023-07-31T04:41:00;39;34;
77699;PMS5003;66867;42.658;23.320;2023-07-31T04:42:00;41;35;
77699;PMS5003;66867;42.658;23.320;2023-07-31T04:43:00;39;35;
77699;PMS5003;66867;42.658;23.320;2023-07-31T04:44:01;42;36;
77699;PMS5003;66867;42.658;23.320;2023-07-31T04:45:00;35;32;
77699;PMS5003;66867;42.658;23.320;2023-07-31T04:46:00;35;33;
77699;PMS5003;66867;42.658;23.320;2023-07-31T04:47:00;36;33;
77699;PMS5003;66867;42.658;23.320;2023-07-31T04:48:00;33;31;
77699;PMS5003;66867;42.658;23.320;2023-07-31T04:49:00;31;30;
77699;PMS5003;66867;42.658;23.320;2023-07-31T04:50:00;34;32;
77699;PMS5003;66867;42.658;23.320;2023-07-31T04:51:00;39;33;
77699;PMS5003;66867;42.658;23.320;2023-07-31T04:52:00;36;32;
77699;PMS5003;66867;42.658;23.320;2023-07-31T04:53:00;33;31;
77699;PMS5003;66867;42.658;23.320;2023-07-31T04:54:00;39;34;
77699;PMS5003;66867;42.658;23.320;2023-07-31T04:55:00;36;33;
77699;PMS5003;66867;42.658;23.320;2023-07-31T04:56:00;33;29;
77699;PMS5003;66867;42.658;23.320;2023-07-31T04:57:00;36;33;
77699;PMS5003;66867;42.658;23.320;2023-07-31T04:58:00;41;33;
77699;PMS5003;66867;42.658;23.320;2023-07-31T04:59:00;33;32;
77699;PMS5003;66867;42.658;23.320;2023-07-31T05:00:00;33;32;
77699;PMS5003;66867;42.658;23.320;2023-07-31T05:01:00;35;32;
77699;PMS5003;66867;42.658;23.320;2023-07-31T05:02:00;34;32;
77699;PMS5003;66867;42.658;23.320;2023-07-31T05:03:00;37;34;
77699;PMS5003;66867;42.658;23.320;2023-07-31T05:04:00;31;30;
77699;PMS5003;66867;42.658;23.320;2023-07-31T05:05:00;33;30;
77699;PMS5003;66867;42.658;23.320;2023-07-31T05:06:00;34;32;
77699;PMS5003;66867;42.658;23.320;2023-07-31T05:07:00;38;33;
77699;PMS5003;66867;42.658;23.320;2023-07-31T05:08:00;31;29;
77699;PMS5003;66867;42.658;23.320;2023-07-31T05:09:00;36;33;
77699;PMS5003;66867;42.658;23.320;2023-07-31T05:10:00;35;33;
77699;PMS5003;66867;42.658;23.320;2023-07-31T05:11:00;35;32;
77699;PMS5003;66867;42.658;23.320;2023-07-31T05:12:00;33;32;
77699;PMS5003;66867;42.658;23.320;2023-07-31T05:13:00;37;33;
77699;PMS5003;66867;42.658;23.320;2023-07-31T05:14:00;31;30;
77699;PMS5003;66867;42.658;23.320;2023-07-31T05:15:00;31;30;
77699;PMS5003;66867;42.658;23.320;2023-07-31T05:16:00;33;32;
77699;PMS5003;66867;42.658;23.320;2023-07-31T05:17:00;36;32;
77699;PMS5003;66867;42.658;23.320;2023-07-31T05:18:00;33;31;
77699;PMS5003;66867;42.658;23.320;2023-07-31T05:19:00;33;31;
77699;PMS5003;66867;42.658;23.320;2023-07-31T05:20:00;33;32;
77699;PMS5003;66867;42.658;23.320;2023-07-31T05:21:00;33;31;
77699;PMS5003;66867;42.658;23.320;2023-07-31T05:22:00;34;32;
77699;PMS5003;66867;42.658;23.320;2023-07-31T05:23:00;29;28;
77699;PMS5003;66867;42.658;23.320;2023-07-31T05:24:00;31;29;
77699;PMS5003;66867;42.658;23.320;2023-07-31T05:25:00;37;33;
77699;PMS5003;66867;42.658;23.320;2023-07-31T05:26:07;33;32;
77699;PMS5003;66867;42.658;23.320;2023-07-31T05:27:00;33;30;
77699;PMS5003;66867;42.658;23.320;2023-07-31T05:28:00;31;30;
77699;PMS5003;66867;42.658;23.320;2023-07-31T05:29:00;30;29;
77699;PMS5003;66867;42.658;23.320;2023-07-31T05:30:00;33;31;
77699;PMS5003;66867;42.658;23.320;2023-07-31T05:31:01;33;31;
77699;PMS5003;66867;42.658;23.320;2023-07-31T05:32:00;33;31;
77699;PMS5003;66867;42.658;23.320;2023-07-31T05:33:00;32;31;
77699;PMS5003;66867;42.658;23.320;2023-07-31T05:34:00;32;31;
77699;PMS5003;66867;42.658;23.320;2023-07-31T05:35:00;30;30;
77699;PMS5003;66867;42.658;23.320;2023-07-31T05:36:00;28;27;
77699;PMS5003;66867;42.658;23.320;2023-07-31T05:37:00;30;29;
77699;PMS5003;66867;42.658;23.320;2023-07-31T05:38:00;28;28;
77699;PMS5003;66867;42.658;23.320;2023-07-31T05:39:00;32;31;
77699;PMS5003;66867;42.658;23.320;2023-07-31T05:40:00;28;28;
77699;PMS5003;66867;42.658;23.320;2023-07-31T05:41:00;28;27;
77699;PMS5003;66867;42.658;23.320;2023-07-31T05:42:00;26;26;
77699;PMS5003;66867;42.658;23.320;2023-07-31T05:43:00;28;28;
77699;PMS5003;66867;42.658;23.320;2023-07-31T05:44:00;28;26;
77699;PMS5003;66867;42.658;23.320;2023-07-31T05:45:00;26;26;
77699;PMS5003;66867;42.658;23.320;2023-07-31T05:46:00;24;23;
77699;PMS5003;66867;42.658;23.320;2023-07-31T05:47:00;27;27;
77699;PMS5003;66867;42.658;23.320;2023-07-31T05:48:00;26;25;
77699;PMS5003;66867;42.658;23.320;2023-07-31T05:49:00;24;24;
77699;PMS5003;66867;42.658;23.320;2023-07-31T05:50:00;22;22;
77699;PMS5003;66867;42.658;23.320;2023-07-31T05:51:00;27;26;
77699;PMS5003;66867;42.658;23.320;2023-07-31T05:52:00;21;20;
77699;PMS5003;66867;42.658;23.320;2023-07-31T05:53:00;20;20;
77699;PMS5003;66867;42.658;23.320;2023-07-31T05:54:00;18;18;
77699;PMS5003;66867;42.658;23.320;2023-07-31T05:55:00;20;19;
77699;PMS5003;66867;42.658;23.320;2023-07-31T05:56:00;19;19;
77699;PMS5003;66867;42.658;23.320;2023-07-31T05:57:00;20;20;
77699;PMS5003;66867;42.658;23.320;2023-07-31T05:58:00;19;18;
77699;PMS5003;66867;42.658;23.320;2023-07-31T05:59:00;21;20;
77699;PMS5003;66867;42.658;23.320;2023-07-31T06:00:00;16;16;
77699;PMS5003;66867;42.658;23.320;2023-07-31T06:01:00;18;18;
77699;PMS5003;66867;42.658;23.320;2023-07-31T06:02:00;18;18;
77699;PMS5003;66867;42.658;23.320;2023-07-31T06:03:00;19;17;
77699;PMS5003;66867;42.658;23.320;2023-07-31T06:04:00;18;17;
77699;PMS5003;66867;42.658;23.320;2023-07-31T06:05:00;18;17;
77699;PMS5003;66867;42.658;23.320;2023-07-31T06:06:00;16;16;
77699;PMS5003;66867;42.658;23.320;2023-07-31T06:07:00;15;15;
77699;PMS5003;66867;42.658;23.320;2023-07-31T06:08:00;18;18;
77699;PMS5003;66867;42.658;23.320;2023-07-31T06:09:00;20;18;
77699;PMS5003;66867;42.658;23.320;2023-07-31T06:10:00;16;15;
77699;PMS5003;66867;42.658;23.320;2023-07-31T06:11:00;17;16;
77699;PMS5003;66867;42.658;23.320;2023-07-31T06:12:00;15;15;
77699;PMS5003;66867;42.658;23.320;2023-07-31T06:13:00;19;19;
77699;PMS5003;66867;42.658;23.320;2023-07-31T06:14:00;15;14;
77699;PMS5003;66867;42.658;23.320;2023-07-31T06:15:01;15;15;
77699;PMS5003;66867;42.658;23.320;2023-07-31T06:16:00;14;14;
77699;PMS5003;66867;42.658;23.320;2023-07-31T06:17:00;13;13;
77699;PMS5003;66867;42.658;23.320;2023-07-31T06:18:00;16;16;
77699;PMS5003;66867;42.658;23.320;2023-07-31T06:19:00;13;11;
77699;PMS5003;66867;42.658;23.320;2023-07-31T06:20:00;13;13;
77699;PMS5003;66867;42.658;23.320;2023-07-31T06:21:00;12;11;
77699;PMS5003;66867;42.658;23.320;2023-07-31T06:22:00;13;13;
77699;PMS5003;66867;42.658;23.320;2023-07-31T06:23:00;15;15;
77699;PMS5003;66867;42.658;23.320;2023-07-31T06:24:00;13;13;
77699;PMS5003;66867;42.658;23.320;2023-07-31T06:25:00;13;13;
77699;PMS5003;66867;42.658;23.320;2023-07-31T06:26:00;13;13;
77699;PMS5003;66867;42.658;23.320;2023-07-31T06:27:00;11;10;
77699;PMS5003;66867;42.658;23.320;2023-07-31T06:28:00;12;11;
77699;PMS5003;66867;42.658;23.320;2023-07-31T06:29:00;16;15;
77699;PMS5003;66867;42.658;23.320;2023-07-31T06:30:00;13;12;
77699;PMS5003;66867;42.658;23.320;2023-07-31T06:31:00;14;14;
77699;PMS5003;66867;42.658;23.320;2023-07-31T06:32:00;14;13;
77699;PMS5003;66867;42.658;23.320;2023-07-31T06:33:00;12;11;
77699;PMS5003;66867;42.658;23.320;2023-07-31T06:34:00;13;12;
77699;PMS5003;66867;42.658;23.320;2023-07-31T06:35:00;12;12;
77699;PMS5003;66867;42.658;23.320;2023-07-31T06:36:00;14;13;